Time;durP1;ratioP1;P1;durP2;ratioP2;P2;SDS_P1;SDS_P2;PMS_P1;PMS_P2;Temp;Humidity;BMP_temperature;BMP_pressure;BME280_temperature;BME280_humidity;BME280_pressure;Samples;Min_cycle;Max_cycle;Signal;HPM_P1;HPM_P2
2023/04/07 00:02:01;;;;;;;10.87;9.10;;;6.90;99.90;;;;;;5038303;28;20284;-73
2023/04/07 00:04:26;;;;;;;11.30;8.33;;;7.00;99.90;;;;;;5030944;28;20660;-73
2023/04/07 00:06:52;;;;;;;9.73;8.33;;;7.00;99.90;;;;;;5033264;28;20250;-73
2023/04/07 00:09:17;;;;;;;9.27;7.50;;;7.00;99.90;;;;;;5042329;28;20541;-75
2023/04/07 00:11:43;;;;;;;12.20;8.47;;;7.00;99.90;;;;;;5042343;28;20542;-73
2023/04/07 00:14:09;;;;;;;14.67;7.60;;;7.00;99.90;;;;;;5037524;28;20177;-73
2023/04/07 00:16:34;;;;;;;11.80;8.33;;;7.00;99.90;;;;;;5038844;28;20181;-72
2023/04/07 00:19:00;;;;;;;10.13;7.57;;;7.00;99.90;;;;;;5032905;28;20284;-73
2023/04/07 00:21:26;;;;;;;10.57;7.93;;;7.10;99.90;;;;;;5035225;28;20206;-73
2023/04/07 00:23:52;;;;;;;11.03;8.17;;;7.00;99.90;;;;;;5041197;28;20216;-73
2023/04/07 00:26:17;;;;;;;12.10;9.27;;;7.00;99.90;;;;;;5042133;28;20185;-73
2023/04/07 00:28:43;;;;;;;15.30;9.47;;;7.00;99.90;;;;;;5041031;28;20644;-73
2023/04/07 00:31:08;;;;;;;12.00;8.60;;;7.10;99.90;;;;;;5030329;28;20581;-73
2023/04/07 00:33:34;;;;;;;10.20;7.67;;;7.00;99.90;;;;;;5030551;28;20294;-73
2023/04/07 00:35:59;;;;;;;11.77;8.77;;;7.00;99.90;;;;;;5034511;28;20635;-72
2023/04/07 00:38:25;;;;;;;14.77;9.30;;;7.00;99.90;;;;;;5045869;28;20193;-73
2023/04/07 00:40:57;;;;;;;16.60;9.83;;;7.00;99.90;;;;;;5043799;28;20685;-72
2023/04/07 00:43:22;;;;;;;14.30;9.87;;;7.00;99.90;;;;;;5034238;28;20206;-73
2023/04/07 00:45:48;;;;;;;10.70;8.00;;;7.00;99.90;;;;;;5035826;28;20784;-73
2023/04/07 00:48:13;;;;;;;10.40;8.77;;;7.00;99.90;;;;;;5045496;28;20262;-73
2023/04/07 00:50:39;;;;;;;14.00;8.30;;;7.00;99.90;;;;;;5037395;28;20183;-73
2023/04/07 00:53:05;;;;;;;11.10;8.60;;;7.00;99.90;;;;;;5041583;28;20187;-73
2023/04/07 00:55:30;;;;;;;19.20;9.27;;;7.00;99.90;;;;;;5042417;28;20197;-73
2023/04/07 00:57:56;;;;;;;12.53;9.23;;;7.00;99.90;;;;;;5036390;28;20950;-72
2023/04/07 02:30:59;;;;;;;13.70;9.30;;;6.90;99.90;;;;;;5881993;22;21596;-74
2023/04/07 02:33:24;;;;;;;12.40;9.40;;;6.90;99.90;;;;;;5027120;28;20487;-75
2023/04/07 02:35:50;;;;;;;13.53;9.40;;;6.80;99.90;;;;;;5031387;28;20212;-74
2023/04/07 02:38:15;;;;;;;14.10;9.37;;;6.80;99.90;;;;;;5031772;28;20671;-74
2023/04/07 02:40:41;;;;;;;13.47;10.10;;;6.80;99.90;;;;;;5031806;28;20213;-75
2023/04/07 02:43:06;;;;;;;9.30;8.13;;;6.80;99.90;;;;;;5031155;28;20639;-74
2023/04/07 02:45:32;;;;;;;10.70;8.77;;;6.80;99.90;;;;;;5030673;28;20207;-74
2023/04/07 02:47:57;;;;;;;12.93;8.03;;;6.90;99.90;;;;;;5031559;28;20199;-74
2023/04/07 02:50:24;;;;;;;9.20;7.43;;;6.90;99.90;;;;;;5031498;28;20194;-74
2023/04/07 02:52:50;;;;;;;13.97;9.07;;;6.90;99.90;;;;;;5031555;28;20190;-74
2023/04/07 02:55:17;;;;;;;12.23;9.53;;;7.00;99.90;;;;;;5031616;28;20778;-75
2023/04/07 02:57:42;;;;;;;11.97;9.30;;;7.00;99.90;;;;;;5031416;28;20261;-74
2023/04/07 03:00:09;;;;;;;12.63;9.00;;;6.90;99.90;;;;;;5030524;28;20934;-74
2023/04/07 03:02:34;;;;;;;9.93;8.10;;;6.90;99.90;;;;;;5030534;28;20236;-74
2023/04/07 03:05:00;;;;;;;16.23;8.23;;;7.00;99.90;;;;;;5031375;28;20428;-75
2023/04/07 03:07:26;;;;;;;11.13;8.83;;;7.00;99.90;;;;;;5031258;28;20755;-74
2023/04/07 03:09:51;;;;;;;12.70;9.80;;;7.00;99.90;;;;;;5031095;28;20514;-74
2023/04/07 03:12:17;;;;;;;11.70;8.13;;;7.00;99.90;;;;;;5030790;28;20208;-74
2023/04/07 03:14:42;;;;;;;10.10;8.47;;;7.00;99.90;;;;;;5031441;28;20274;-74
2023/04/07 03:17:08;;;;;;;12.53;8.83;;;7.00;99.90;;;;;;5030746;28;20191;-74
2023/04/07 03:19:33;;;;;;;12.23;8.97;;;7.00;99.90;;;;;;5031280;28;20195;-74
2023/04/07 03:21:59;;;;;;;11.47;8.43;;;7.10;99.90;;;;;;5030814;28;20216;-75
2023/04/07 03:24:25;;;;;;;10.90;8.80;;;7.00;99.90;;;;;;5031034;28;20189;-74
2023/04/07 03:26:50;;;;;;;13.00;9.80;;;7.00;99.90;;;;;;5030897;28;20185;-73
2023/04/07 03:29:15;;;;;;;10.53;8.60;;;7.10;99.90;;;;;;5030859;28;20198;-74
2023/04/07 03:31:41;;;;;;;14.63;9.40;;;7.10;99.90;;;;;;5030957;28;20218;-74
2023/04/07 03:34:07;;;;;;;12.40;8.60;;;7.10;99.90;;;;;;5030924;28;20221;-74
2023/04/07 03:36:32;;;;;;;10.43;8.73;;;7.10;99.90;;;;;;5031038;28;20188;-74
2023/04/07 03:38:58;;;;;;;11.50;8.57;;;7.10;99.90;;;;;;5030813;28;20198;-74
2023/04/07 03:41:24;;;;;;;10.40;8.13;;;7.10;99.90;;;;;;5030883;28;20216;-74
2023/04/07 03:43:50;;;;;;;12.03;8.30;;;7.10;99.90;;;;;;5030642;28;20474;-74
2023/04/07 03:46:15;;;;;;;10.90;8.70;;;7.00;99.90;;;;;;5030601;28;20184;-73
2023/04/07 03:48:41;;;;;;;10.97;8.10;;;7.10;99.90;;;;;;5030889;28;20456;-74
2023/04/07 03:51:06;;;;;;;12.57;8.17;;;7.10;99.90;;;;;;5030646;28;20244;-74
2023/04/07 03:53:32;;;;;;;11.17;8.80;;;7.10;99.90;;;;;;5030781;28;20245;-74
2023/04/07 03:55:57;;;;;;;12.43;9.50;;;7.10;99.90;;;;;;5030702;28;20335;-74
2023/04/07 03:58:23;;;;;;;13.10;9.30;;;7.00;99.90;;;;;;5030528;28;20217;-74
2023/04/07 04:00:49;;;;;;;10.73;7.80;;;7.10;99.90;;;;;;5029227;28;20304;-74
2023/04/07 04:03:14;;;;;;;10.10;7.90;;;7.10;99.90;;;;;;5030724;28;20335;-74
2023/04/07 04:05:40;;;;;;;11.90;9.03;;;7.10;99.90;;;;;;5030763;28;20177;-74
2023/04/07 04:08:06;;;;;;;11.27;8.50;;;7.10;99.90;;;;;;5030206;28;20197;-75
2023/04/07 04:10:31;;;;;;;12.63;9.13;;;7.10;99.90;;;;;;5030716;28;20262;-74
2023/04/07 04:12:59;;;;;;;11.83;9.00;;;7.10;99.90;;;;;;5034272;28;20444;-74
2023/04/07 04:15:25;;;;;;;10.47;8.50;;;7.10;99.90;;;;;;5033533;28;20671;-73
2023/04/07 04:17:50;;;;;;;14.23;8.87;;;7.10;99.90;;;;;;5034095;28;20493;-74
2023/04/07 04:20:16;;;;;;;10.13;8.57;;;7.10;99.90;;;;;;5034427;28;20192;-74
2023/04/07 04:22:42;;;;;;;11.43;9.17;;;7.10;99.90;;;;;;5034402;28;20248;-74
2023/04/07 04:25:08;;;;;;;11.77;8.77;;;7.10;99.90;;;;;;5034237;28;20280;-74
2023/04/07 04:27:33;;;;;;;13.47;9.20;;;7.10;99.90;;;;;;5034416;28;20717;-74
2023/04/07 04:29:58;;;;;;;14.20;9.50;;;7.10;99.90;;;;;;5034026;28;20978;-74
2023/04/07 04:32:24;;;;;;;14.70;9.93;;;7.10;99.90;;;;;;5034377;28;20221;-74
2023/04/07 04:34:50;;;;;;;9.93;8.73;;;7.10;99.90;;;;;;5034081;28;20571;-73
2023/04/07 04:37:15;;;;;;;14.00;9.00;;;7.10;99.90;;;;;;5034063;28;20645;-75
2023/04/07 04:39:40;;;;;;;10.70;8.83;;;7.10;99.90;;;;;;5034161;28;20815;-74
2023/04/07 04:42:06;;;;;;;10.10;7.70;;;7.20;99.90;;;;;;5033657;28;20228;-74
2023/04/07 04:44:31;;;;;;;13.40;8.80;;;7.10;99.90;;;;;;5034316;28;20189;-75
2023/04/07 04:46:57;;;;;;;11.73;9.30;;;7.10;99.90;;;;;;5032440;28;20187;-74
2023/04/07 04:49:22;;;;;;;11.87;8.93;;;7.10;99.90;;;;;;5033945;28;20249;-74
2023/04/07 04:51:48;;;;;;;12.33;9.03;;;7.10;99.90;;;;;;5033877;28;20577;-75
2023/04/07 04:54:15;;;;;;;10.90;9.50;;;7.10;99.90;;;;;;5033683;28;20551;-73
2023/04/07 04:56:41;;;;;;;12.73;9.47;;;7.20;99.90;;;;;;5033879;28;20194;-73
2023/04/07 04:59:07;;;;;;;13.43;8.60;;;7.10;99.90;;;;;;5033399;28;20508;-73
2023/04/07 05:01:32;;;;;;;12.53;8.97;;;7.20;99.90;;;;;;5033916;28;20965;-73
2023/04/07 05:03:58;;;;;;;14.07;7.90;;;7.10;99.90;;;;;;5033245;28;20270;-73
2023/04/07 05:06:23;;;;;;;14.20;9.40;;;7.20;99.90;;;;;;5033731;28;20191;-74
2023/04/07 05:08:49;;;;;;;11.63;8.33;;;7.20;99.90;;;;;;5033538;28;20224;-74
2023/04/07 05:11:15;;;;;;;10.53;9.37;;;7.10;99.90;;;;;;5033324;28;20208;-73
2023/04/07 05:13:41;;;;;;;10.60;8.30;;;7.10;99.90;;;;;;5032349;28;20187;-73
2023/04/07 05:16:06;;;;;;;10.13;9.07;;;7.10;99.90;;;;;;5033127;28;20945;-73
2023/04/07 05:18:32;;;;;;;13.57;9.43;;;7.10;99.90;;;;;;5033528;28;20183;-73
2023/04/07 05:20:57;;;;;;;11.50;8.87;;;7.10;99.90;;;;;;5032956;28;20210;-72
2023/04/07 05:23:23;;;;;;;12.30;9.37;;;7.10;99.90;;;;;;5032433;28;20241;-73
2023/04/07 05:25:49;;;;;;;11.93;9.30;;;7.10;99.90;;;;;;5033076;28;20558;-74
2023/04/07 05:28:15;;;;;;;11.30;8.33;;;7.10;99.90;;;;;;5033117;28;20199;-74
2023/04/07 05:30:40;;;;;;;14.00;10.13;;;7.00;99.90;;;;;;5033143;28;20481;-73
2023/04/07 05:33:05;;;;;;;11.20;8.87;;;7.00;99.90;;;;;;5032950;28;20197;-73
2023/04/07 05:35:31;;;;;;;11.30;9.20;;;7.00;99.90;;;;;;5033274;28;20205;-73
2023/04/07 05:37:56;;;;;;;11.33;8.77;;;7.10;99.90;;;;;;5032572;28;20242;-73
2023/04/07 05:40:23;;;;;;;11.10;9.00;;;7.10;99.90;;;;;;5032913;28;20191;-73
2023/04/07 05:42:48;;;;;;;11.97;9.43;;;7.10;99.90;;;;;;5032980;28;20643;-74
2023/04/07 05:45:14;;;;;;;12.97;9.00;;;7.10;99.90;;;;;;5032744;28;20510;-73
2023/04/07 05:47:39;;;;;;;13.47;8.77;;;7.10;99.90;;;;;;5032842;28;20187;-74
2023/04/07 05:50:05;;;;;;;11.97;9.93;;;7.10;99.90;;;;;;5032576;28;20227;-73
2023/04/07 05:52:31;;;;;;;12.90;9.83;;;7.20;99.90;;;;;;5032799;28;20674;-73
2023/04/07 05:54:56;;;;;;;15.47;8.53;;;7.30;99.90;;;;;;5032546;28;20465;-73
2023/04/07 05:57:22;;;;;;;15.13;9.00;;;7.30;99.90;;;;;;5032610;28;20191;-73
2023/04/07 05:59:47;;;;;;;15.77;8.87;;;7.30;99.90;;;;;;5032489;28;20272;-72
2023/04/07 06:02:13;;;;;;;14.70;9.50;;;7.30;99.90;;;;;;5031939;28;20573;-72
2023/04/07 06:04:39;;;;;;;13.53;9.40;;;7.40;99.90;;;;;;5032609;28;20191;-72
2023/04/07 06:07:04;;;;;;;16.10;10.20;;;7.40;99.90;;;;;;5031729;28;20257;-74
2023/04/07 06:09:30;;;;;;;12.73;8.80;;;7.50;99.90;;;;;;5032050;28;20196;-72
2023/04/07 06:11:55;;;;;;;12.00;9.10;;;7.50;99.90;;;;;;5031994;28;20263;-71
2023/04/07 06:14:21;;;;;;;13.40;8.93;;;7.50;99.90;;;;;;5032447;28;20195;-73
2023/04/07 06:16:47;;;;;;;10.20;8.03;;;7.60;99.90;;;;;;5032127;28;20668;-73
2023/04/07 06:19:12;;;;;;;11.83;9.10;;;7.60;99.90;;;;;;5031945;28;20204;-72
2023/04/07 06:21:38;;;;;;;11.37;8.50;;;7.60;99.90;;;;;;5032345;28;20210;-72
2023/04/07 06:24:05;;;;;;;13.20;8.80;;;7.60;99.90;;;;;;5032015;28;20209;-72
2023/04/07 06:26:31;;;;;;;11.17;7.90;;;7.70;99.90;;;;;;5032286;28;20486;-72
2023/04/07 06:28:57;;;;;;;11.43;8.43;;;7.80;99.90;;;;;;5031713;28;20434;-71
2023/04/07 06:31:23;;;;;;;10.67;8.60;;;7.80;99.90;;;;;;5031953;28;20216;-72
2023/04/07 06:33:48;;;;;;;8.97;8.17;;;7.80;99.90;;;;;;5031567;28;20431;-72
2023/04/07 06:36:14;;;;;;;10.70;8.27;;;7.90;99.90;;;;;;5032180;28;20254;-71
2023/04/07 06:38:39;;;;;;;10.00;8.60;;;7.90;99.90;;;;;;5031359;28;20184;-72
2023/04/07 06:41:05;;;;;;;11.90;8.70;;;8.00;99.90;;;;;;5031887;28;20622;-72
2023/04/07 06:43:31;;;;;;;11.43;9.00;;;8.00;99.90;;;;;;5031712;28;20212;-72
2023/04/07 06:45:56;;;;;;;13.10;9.10;;;8.00;99.90;;;;;;5031757;28;20228;-71
2023/04/07 06:48:22;;;;;;;11.07;8.20;;;8.10;99.90;;;;;;5031612;28;20214;-72
2023/04/07 06:50:48;;;;;;;13.17;9.20;;;8.10;99.90;;;;;;5031862;28;20198;-72
2023/04/07 06:53:14;;;;;;;10.60;7.70;;;8.20;99.90;;;;;;5031296;28;20436;-72
2023/04/07 06:55:39;;;;;;;10.83;8.57;;;8.30;99.90;;;;;;5031794;28;20779;-72
2023/04/07 06:58:05;;;;;;;15.57;9.77;;;8.30;99.90;;;;;;5031026;28;20681;-72
2023/04/07 07:00:30;;;;;;;14.00;10.63;;;8.30;99.90;;;;;;5031563;28;20189;-71
2023/04/07 07:02:56;;;;;;;12.60;9.83;;;8.30;99.90;;;;;;5031269;28;20223;-72
2023/04/07 07:05:22;;;;;;;18.27;11.53;;;8.40;99.90;;;;;;5031233;28;20553;-72
2023/04/07 07:07:48;;;;;;;13.57;10.50;;;8.50;99.90;;;;;;5033656;28;20189;-72
2023/04/07 07:10:14;;;;;;;13.27;9.83;;;8.60;99.90;;;;;;5030827;28;20654;-73
2023/04/07 07:12:39;;;;;;;17.50;11.17;;;8.70;99.90;;;;;;5030551;28;20542;-73
2023/04/07 07:15:06;;;;;;;16.27;11.77;;;8.80;99.90;;;;;;5030484;28;20306;-72
2023/04/07 07:17:31;;;;;;;16.03;10.33;;;8.90;99.90;;;;;;5030946;28;20201;-72
2023/04/07 07:19:57;;;;;;;14.70;9.90;;;8.90;99.90;;;;;;5030849;28;20494;-71
2023/04/07 07:22:23;;;;;;;17.30;10.60;;;9.00;99.90;;;;;;5030671;28;20221;-73
2023/04/07 07:24:48;;;;;;;16.43;10.20;;;9.00;99.90;;;;;;5031229;28;20526;-72
2023/04/07 07:27:14;;;;;;;11.77;9.90;;;9.10;99.90;;;;;;5030559;28;20244;-72
2023/04/07 07:29:40;;;;;;;9.77;8.77;;;9.20;99.90;;;;;;5029447;28;20239;-72
2023/04/07 07:32:05;;;;;;;12.70;9.07;;;9.30;99.90;;;;;;5028585;28;20877;-74
2023/04/07 07:34:32;;;;;;;13.47;8.67;;;9.40;99.90;;;;;;5029532;28;20204;-74
2023/04/07 07:36:58;;;;;;;13.40;9.20;;;9.50;99.90;;;;;;5019739;28;20182;-73
2023/04/07 07:39:24;;;;;;;11.93;9.37;;;9.60;99.90;;;;;;5028299;28;20782;-72
2023/04/07 07:41:50;;;;;;;10.80;8.03;;;9.80;99.90;;;;;;5026712;28;20448;-73
2023/04/07 07:44:15;;;;;;;11.10;8.63;;;9.80;99.90;;;;;;5028327;28;20483;-73
2023/04/07 07:46:41;;;;;;;9.20;7.90;;;10.00;99.90;;;;;;5026095;28;20626;-73
2023/04/07 07:49:06;;;;;;;12.30;9.03;;;10.20;99.90;;;;;;5030178;28;20197;-73
2023/04/07 07:51:32;;;;;;;9.67;8.53;;;10.50;99.90;;;;;;5030500;28;20735;-72
2023/04/07 07:53:58;;;;;;;10.20;9.07;;;11.00;99.90;;;;;;5030328;28;20272;-73
2023/04/07 07:56:23;;;;;;;11.67;8.17;;;11.70;99.90;;;;;;5030344;28;20185;-73
2023/04/07 07:58:49;;;;;;;7.77;6.97;;;12.50;99.90;;;;;;5030550;28;20580;-75
2023/04/07 08:01:14;;;;;;;8.07;7.23;;;13.20;99.90;;;;;;5030314;28;20244;-73
2023/04/07 08:03:40;;;;;;;8.23;7.43;;;13.80;99.90;;;;;;5030728;28;20209;-73
2023/04/07 08:06:08;;;;;;;7.87;7.07;;;14.00;99.90;;;;;;5030004;28;20190;-73
2023/04/07 08:08:33;;;;;;;11.23;8.23;;;14.10;99.90;;;;;;5030466;28;20265;-73
2023/04/07 08:10:59;;;;;;;15.07;7.00;;;14.00;99.90;;;;;;5030486;28;20534;-71
2023/04/07 08:13:25;;;;;;;8.60;7.30;;;13.90;99.90;;;;;;5030368;28;20190;-73
2023/04/07 08:15:50;;;;;;;9.70;7.13;;;14.00;99.90;;;;;;5030654;28;20197;-73
2023/04/07 08:18:16;;;;;;;6.73;6.03;;;14.20;99.90;;;;;;5030216;28;20248;-74
2023/04/07 08:20:41;;;;;;;5.80;5.23;;;13.80;99.90;;;;;;5028940;28;20749;-72
2023/04/07 08:23:07;;;;;;;6.93;5.47;;;13.50;99.90;;;;;;5027575;28;20212;-72
2023/04/07 08:25:32;;;;;;;8.30;6.60;;;13.50;99.90;;;;;;5030674;28;20240;-74
2023/04/07 08:27:58;;;;;;;8.90;7.20;;;13.20;99.90;;;;;;5030103;28;20273;-72
2023/04/07 08:30:23;;;;;;;7.73;6.87;;;13.10;99.90;;;;;;5030087;28;20553;-73
2023/04/07 08:32:49;;;;;;;8.73;6.20;;;13.30;99.90;;;;;;5030389;28;20198;-73
2023/04/07 08:35:14;;;;;;;8.70;6.50;;;14.30;99.90;;;;;;5030234;28;20193;-73
2023/04/07 08:37:42;;;;;;;7.80;6.57;;;15.10;99.90;;;;;;5030443;28;20186;-73
2023/04/07 08:40:08;;;;;;;6.67;6.00;;;15.90;99.90;;;;;;5029109;28;20568;-73
2023/04/07 08:42:35;;;;;;;7.87;6.63;;;16.70;99.90;;;;;;5030302;28;20465;-73
2023/04/07 08:45:05;;;;;;;7.67;6.80;;;17.50;99.90;;;;;;5030436;28;20509;-73
2023/04/07 08:47:33;;;;;;;7.27;5.83;;;17.40;99.90;;;;;;5022814;28;20792;-71
2023/04/07 08:50:03;;;;;;;6.33;5.77;;;16.60;99.90;;;;;;5030353;28;20447;-73
2023/04/07 08:52:43;;;;;;;9.90;6.83;;;16.20;99.90;;;;;;5022519;28;20910;-73
2023/04/07 08:55:09;;;;;;;12.37;7.87;;;15.80;99.90;;;;;;5030294;28;20559;-74
2023/04/07 08:57:35;;;;;;;17.17;13.43;;;15.70;99.90;;;;;;5030393;28;20519;-74
2023/04/07 09:00:05;;;;;;;6.87;6.17;;;15.60;99.90;;;;;;5034070;28;20201;-73
2023/04/07 09:02:38;;;;;;;7.17;6.40;;;15.70;99.90;;;;;;5025929;28;20471;-73
2023/04/07 09:05:05;;;;;;;8.90;5.60;;;15.40;99.90;;;;;;5033790;28;20429;-73
2023/04/07 09:07:33;;;;;;;6.57;5.80;;;14.70;99.90;;;;;;5025589;28;20429;-73
2023/04/07 09:10:00;;;;;;;8.63;6.27;;;14.50;99.90;;;;;;5033535;28;20429;-72
2023/04/07 09:12:27;;;;;;;7.97;7.07;;;14.50;99.90;;;;;;5033306;28;20445;-72
2023/04/07 09:14:53;;;;;;;6.73;6.13;;;14.30;99.90;;;;;;5033656;28;20939;-72
2023/04/07 09:17:19;;;;;;;8.97;7.13;;;14.00;99.90;;;;;;5033273;28;20420;-73
2023/04/07 09:19:45;;;;;;;7.43;6.63;;;14.70;99.90;;;;;;5031216;28;20416;-73
2023/04/07 09:22:13;;;;;;;8.07;5.60;;;15.30;99.90;;;;;;5032925;28;20448;-72
2023/04/07 09:24:39;;;;;;;7.20;5.93;;;15.60;99.90;;;;;;5033430;28;20463;-73
2023/04/07 09:27:16;;;;;;;9.57;6.30;;;16.10;99.90;;;;;;5029762;28;20436;-72
2023/04/07 09:29:43;;;;;;;21.90;11.20;;;17.20;99.90;;;;;;5029252;28;20909;-75
2023/04/07 09:32:09;;;;;;;8.17;6.40;;;18.10;99.90;;;;;;5030761;28;20992;-73
2023/04/07 09:34:37;;;;;;;10.23;7.33;;;18.50;99.90;;;;;;5033137;28;20428;-73
2023/04/07 09:37:04;;;;;;;10.53;7.30;;;18.40;99.90;;;;;;5032622;28;20196;-73
2023/04/07 09:39:30;;;;;;;8.67;7.87;;;17.60;99.90;;;;;;5032656;28;20508;-72
2023/04/07 09:41:56;;;;;;;7.43;6.73;;;17.60;99.90;;;;;;5031468;28;20539;-72
2023/04/07 09:44:23;;;;;;;7.20;6.53;;;17.70;99.90;;;;;;5032682;28;20468;-73
2023/04/07 09:46:55;;;;;;;9.40;5.77;;;17.30;99.90;;;;;;5032730;28;20535;-74
2023/04/07 09:49:22;;;;;;;7.20;6.20;;;16.80;99.90;;;;;;5032490;28;20428;-72
2023/04/07 09:52:00;;;;;;;7.70;6.20;;;16.50;99.90;;;;;;5028863;28;20453;-72
2023/04/07 09:54:33;;;;;;;7.00;5.33;;;16.10;99.90;;;;;;5031566;28;20770;-73
2023/04/07 09:57:00;;;;;;;10.03;5.67;;;15.50;99.90;;;;;;5032305;28;20778;-73
2023/04/07 09:59:27;;;;;;;6.10;5.50;;;15.20;99.90;;;;;;5027230;28;20503;-72
2023/04/07 10:01:53;;;;;;;10.60;6.27;;;15.10;99.90;;;;;;5032219;28;20539;-73
2023/04/07 10:04:19;;;;;;;5.90;5.40;;;14.70;99.90;;;;;;5031155;28;20907;-73
2023/04/07 10:06:46;;;;;;;6.40;4.90;;;14.40;99.90;;;;;;5032266;28;20669;-72
2023/04/07 10:09:12;;;;;;;5.70;5.20;;;14.20;99.90;;;;;;5031497;28;20420;-72
2023/04/07 10:11:39;;;;;;;8.80;7.90;;;14.00;99.90;;;;;;5032609;28;20440;-70
2023/04/07 10:14:05;;;;;;;16.70;13.70;;;13.90;99.90;;;;;;5032309;28;20429;-72
2023/04/07 10:16:31;;;;;;;7.50;5.83;;;14.00;99.90;;;;;;5027052;28;20476;-72
2023/04/07 10:18:57;;;;;;;6.10;5.40;;;14.20;99.90;;;;;;5031712;28;20460;-73
2023/04/07 10:21:23;;;;;;;20.13;8.90;;;15.00;99.90;;;;;;5030432;28;20508;-72
2023/04/07 10:24:14;;;;;;;12.77;7.00;;;15.20;99.90;;;;;;5031821;28;20226;-72
2023/04/07 10:26:41;;;;;;;7.67;5.23;;;14.90;99.90;;;;;;5024665;28;20456;-73
2023/04/07 10:29:11;;;;;;;15.70;8.83;;;15.00;99.90;;;;;;5031508;28;20467;-72
2023/04/07 10:31:38;;;;;;;8.67;6.47;;;15.10;99.90;;;;;;5031918;28;20459;-72
2023/04/07 10:34:04;;;;;;;7.40;6.50;;;15.50;99.90;;;;;;5031948;28;20430;-71
2023/04/07 10:36:30;;;;;;;10.40;8.50;;;15.30;99.90;;;;;;5031691;28;20829;-73
2023/04/07 10:39:08;;;;;;;11.03;8.00;;;14.80;99.90;;;;;;5031005;28;20437;-72
2023/04/07 10:41:35;;;;;;;8.83;7.60;;;14.40;99.90;;;;;;5031281;28;20449;-72
2023/04/07 10:44:04;;;;;;;19.47;12.83;;;13.90;99.90;;;;;;5024857;28;20468;-73
2023/04/07 10:46:48;;;;;;;31.67;11.67;;;13.80;99.90;;;;;;5024541;28;20452;-73
2023/04/07 10:49:15;;;;;;;21.43;10.57;;;13.80;99.90;;;;;;5030712;28;20444;-72
2023/04/07 10:51:41;;;;;;;10.70;7.80;;;13.70;99.90;;;;;;5031434;28;20501;-73
2023/04/07 10:54:21;;;;;;;10.37;7.83;;;13.60;99.90;;;;;;5031627;28;20537;-72
2023/04/07 10:57:02;;;;;;;25.87;11.87;;;13.70;99.90;;;;;;5031800;28;20507;-73
2023/04/07 10:59:32;;;;;;;21.27;11.30;;;13.50;99.90;;;;;;5031412;28;20820;-73
2023/04/07 11:02:12;;;;;;;12.20;8.67;;;13.40;99.90;;;;;;5031278;28;20484;-74
2023/04/07 11:04:43;;;;;;;9.70;7.20;;;13.40;99.90;;;;;;5023662;28;20425;-72
2023/04/07 11:07:10;;;;;;;8.57;7.10;;;13.30;99.90;;;;;;5031358;28;20476;-72
2023/04/07 11:09:36;;;;;;;9.87;6.73;;;13.20;99.90;;;;;;5031164;28;21131;-73
2023/04/07 11:12:02;;;;;;;6.37;5.60;;;13.10;99.90;;;;;;5031338;28;20453;-72
2023/04/07 11:14:28;;;;;;;7.20;6.50;;;13.10;99.90;;;;;;5031203;28;20527;-73
2023/04/07 11:16:55;;;;;;;9.63;7.17;;;13.00;99.90;;;;;;5031097;28;20327;-74
2023/04/07 11:19:21;;;;;;;8.70;6.93;;;12.90;99.90;;;;;;5031166;28;20578;-74
2023/04/07 11:21:46;;;;;;;11.13;7.70;;;12.70;99.90;;;;;;5030429;28;20472;-73
2023/04/07 11:24:36;;;;;;;7.10;6.50;;;12.50;99.90;;;;;;5031018;28;20562;-72
2023/04/07 11:27:02;;;;;;;15.10;10.47;;;12.20;99.90;;;;;;5026222;28;20219;-72
2023/04/07 11:29:31;;;;;;;8.77;7.83;;;12.10;99.90;;;;;;5029624;28;20643;-73
2023/04/07 11:32:01;;;;;;;7.77;6.57;;;11.70;99.90;;;;;;5030836;28;20221;-73
2023/04/07 11:34:35;;;;;;;12.27;7.93;;;11.80;99.90;;;;;;5030875;28;20436;-72
2023/04/07 11:37:23;;;;;;;11.13;7.03;;;11.80;99.90;;;;;;5029543;28;20784;-72
2023/04/07 11:39:53;;;;;;;10.50;8.20;;;11.90;99.90;;;;;;5024114;28;20857;-73
2023/04/07 11:42:35;;;;;;;11.50;7.87;;;11.80;99.90;;;;;;5030623;28;20456;-73
2023/04/07 11:45:01;;;;;;;10.53;6.70;;;11.70;99.90;;;;;;5030776;28;20433;-73
2023/04/07 11:47:37;;;;;;;9.90;7.03;;;11.60;99.90;;;;;;5030615;28;20431;-73
2023/04/07 11:50:03;;;;;;;15.67;8.60;;;11.60;99.90;;;;;;5030723;28;20430;-71
2023/04/07 11:52:40;;;;;;;10.73;7.80;;;11.50;99.90;;;;;;5030585;28;20484;-73
2023/04/07 11:55:15;;;;;;;7.97;7.10;;;11.40;99.90;;;;;;5030864;28;20426;-73
2023/04/07 11:57:40;;;;;;;9.20;8.30;;;11.20;99.90;;;;;;5022756;28;20499;-73
2023/04/07 12:00:07;;;;;;;8.77;7.83;;;11.00;99.90;;;;;;5030621;28;20520;-72
2023/04/07 12:02:33;;;;;;;7.70;6.90;;;10.80;99.90;;;;;;5030822;28;20209;-72
2023/04/07 12:04:59;;;;;;;7.03;6.43;;;10.70;99.90;;;;;;5030726;28;20436;-74
2023/04/07 12:07:25;;;;;;;9.90;7.33;;;10.50;99.90;;;;;;5030520;28;20420;-73
2023/04/07 12:09:52;;;;;;;8.33;6.50;;;10.40;99.90;;;;;;5030481;28;20562;-73
2023/04/07 12:12:27;;;;;;;8.60;6.23;;;10.30;99.90;;;;;;5030545;28;20444;-73
2023/04/07 12:14:54;;;;;;;6.90;5.97;;;10.00;99.90;;;;;;5030608;28;20519;-73
2023/04/07 12:17:24;;;;;;;8.23;6.50;;;10.00;99.90;;;;;;5030416;28;20467;-73
2023/04/07 12:19:49;;;;;;;6.60;5.93;;;10.00;99.90;;;;;;5030522;28;20436;-73
2023/04/07 12:22:15;;;;;;;4.87;4.47;;;9.90;99.90;;;;;;5030528;28;20444;-73
2023/04/07 12:24:40;;;;;;;6.90;4.80;;;9.90;99.90;;;;;;5030407;28;20268;-74
2023/04/07 12:27:06;;;;;;;6.07;4.87;;;10.00;99.90;;;;;;5030471;28;20576;-73
2023/04/07 12:29:32;;;;;;;6.13;4.60;;;10.00;99.90;;;;;;5030238;28;20251;-73
2023/04/07 12:31:58;;;;;;;5.33;4.77;;;10.00;99.90;;;;;;5030727;28;20213;-72
2023/04/07 12:34:23;;;;;;;4.60;4.20;;;10.10;99.90;;;;;;5033802;28;20441;-71
2023/04/07 12:36:49;;;;;;;4.80;4.27;;;10.10;99.90;;;;;;5033636;28;20681;-73
2023/04/07 12:39:15;;;;;;;6.60;5.33;;;10.10;99.90;;;;;;5033867;28;20196;-72
2023/04/07 12:41:41;;;;;;;10.93;5.40;;;10.20;99.90;;;;;;5034008;28;20217;-73
2023/04/07 12:44:07;;;;;;;7.73;3.90;;;10.30;99.90;;;;;;5034046;28;20499;-72
2023/04/07 12:46:32;;;;;;;8.43;4.90;;;10.30;99.90;;;;;;5033916;28;20189;-72
2023/04/07 12:48:58;;;;;;;6.13;3.50;;;10.30;99.90;;;;;;5034116;28;20562;-73
2023/04/07 12:51:24;;;;;;;3.87;3.40;;;10.30;99.90;;;;;;5033847;28;20235;-73
2023/04/07 12:53:50;;;;;;;4.70;3.83;;;10.30;99.90;;;;;;5034203;28;20239;-73
2023/04/07 12:56:16;;;;;;;3.80;3.37;;;10.30;99.90;;;;;;5034051;28;20455;-72
2023/04/07 12:58:41;;;;;;;5.40;3.10;;;10.40;99.90;;;;;;5033813;28;20275;-73
2023/04/07 13:01:07;;;;;;;4.27;3.90;;;10.40;99.90;;;;;;5034216;28;20220;-73
2023/04/07 13:03:32;;;;;;;3.47;3.23;;;10.50;99.90;;;;;;5033748;28;20220;-73
2023/04/07 13:06:00;;;;;;;3.47;2.80;;;10.60;99.90;;;;;;5033833;28;20283;-73
2023/04/07 13:08:27;;;;;;;5.23;3.30;;;10.70;99.90;;;;;;5033385;28;20186;-72
2023/04/07 13:10:52;;;;;;;4.03;3.73;;;10.70;99.90;;;;;;5033646;28;20582;-71
2023/04/07 13:13:17;;;;;;;4.30;3.03;;;10.70;99.90;;;;;;5033703;28;20515;-72
2023/04/07 13:15:43;;;;;;;2.80;2.60;;;10.70;99.90;;;;;;5033396;28;20635;-73
2023/04/07 13:18:09;;;;;;;3.73;3.03;;;10.70;99.90;;;;;;5033401;28;20197;-73
2023/04/07 13:20:34;;;;;;;4.00;3.10;;;10.80;99.90;;;;;;5033347;28;20190;-73
2023/04/07 13:23:00;;;;;;;4.13;3.50;;;10.70;99.90;;;;;;5033502;28;20214;-73
2023/04/07 13:25:26;;;;;;;8.27;3.40;;;10.70;99.90;;;;;;5033571;28;20676;-72
2023/04/07 13:27:51;;;;;;;4.77;3.30;;;10.70;99.90;;;;;;5033265;28;20190;-72
2023/04/07 13:30:17;;;;;;;3.20;3.00;;;10.60;99.90;;;;;;5033566;28;20232;-71
2023/04/07 13:32:42;;;;;;;5.30;3.80;;;10.70;99.90;;;;;;5034119;28;20213;-72
2023/04/07 13:35:08;;;;;;;3.80;3.50;;;10.70;99.90;;;;;;5036094;28;20599;-73
2023/04/07 13:37:33;;;;;;;4.90;3.00;;;10.70;99.90;;;;;;5035627;28;20194;-73
2023/04/07 13:39:59;;;;;;;2.93;2.73;;;10.60;99.90;;;;;;5033263;28;20288;-72
2023/04/07 13:42:25;;;;;;;3.53;3.33;;;10.50;99.90;;;;;;5033045;28;20220;-74
2023/04/07 13:44:53;;;;;;;3.27;3.13;;;10.50;99.90;;;;;;5032578;28;20190;-73
2023/04/07 13:47:18;;;;;;;4.20;2.83;;;10.50;99.90;;;;;;5033316;28;20196;-73
2023/04/07 13:49:46;;;;;;;3.00;2.80;;;10.40;99.90;;;;;;5032952;28;20420;-73
2023/04/07 13:52:12;;;;;;;2.57;2.37;;;10.50;99.90;;;;;;5031747;28;20296;-73
2023/04/07 13:54:38;;;;;;;3.37;3.07;;;10.50;99.90;;;;;;5033062;28;20441;-73
2023/04/07 13:57:04;;;;;;;3.43;2.50;;;10.50;99.90;;;;;;5032977;28;20936;-73
2023/04/07 13:59:30;;;;;;;4.53;2.93;;;10.60;99.90;;;;;;5033086;28;20213;-72
2023/04/07 14:01:55;;;;;;;3.17;2.93;;;10.50;99.90;;;;;;5033001;28;21004;-72
2023/04/07 14:04:21;;;;;;;3.30;3.03;;;10.50;99.90;;;;;;5033307;28;20214;-73
2023/04/07 14:06:47;;;;;;;4.53;3.17;;;10.50;99.90;;;;;;5032385;28;20182;-73
2023/04/07 14:09:12;;;;;;;3.40;2.90;;;10.60;99.90;;;;;;5032460;28;20433;-74
2023/04/07 14:11:38;;;;;;;4.30;3.20;;;10.70;99.90;;;;;;5032426;28;20264;-73
2023/04/07 14:14:03;;;;;;;5.13;2.93;;;10.80;99.90;;;;;;5032787;28;20198;-73